Sansumifuku — JD2579 — position and weather

sailwx.info

Track history (hours):
 
Tides and Currents Weather Stations Pressure Air Temp Water Temp Dewpoint Dewpoint Depression Visibility Wind Speed Wind Dir Waves Ship Positions

Sansumifuku

Last reported at 2014-Jul-25 12:29 UTC. Time now 2014-Jul-25 23:09 UTC.
Position N 34°37' E 134°56'.

Length 75 m; draft 4.3 m.

Type: Cargo ship. MMSI: 431000426.

Date/timePositionNaut miles runAvg speedWind from/ knotsBaromVisibWave heightAir tempDewpointWater temp
2014-Jul-25 12:29N 34°37' E 134°56'1010.9
2014-Jul-25 11:31N 34°31' E 135°06'1212.4
2014-Jul-25 10:33N 34°19' E 135°04'5 4.8
2014-Jul-25 09:32N 34°15' E 135°07'0 0.0
2014-Jul-25 08:15N 34°15' E 135°07'0 0.0
2014-Jul-25 07:18N 34°15' E 135°07'0 0.0
2014-Jul-25 06:33N 34°15' E 135°07'0 0.0
2014-Jul-25 05:33N 34°15' E 135°07'0 0.0
2014-Jul-25 04:33N 34°15' E 135°07'0 0.0
2014-Jul-25 03:26N 34°15' E 135°07'0 0.0
2014-Jul-25 02:33N 34°15' E 135°07'0 0.0
2014-Jul-25 01:33N 34°15' E 135°07'0 0.2
2014-Jul-25 00:34N 34°14' E 135°07'1 0.6
2014-Jul-24 23:25N 34°15' E 135°06'0 0.1
2014-Jul-24 22:31N 34°15' E 135°06'0 0.0
2014-Jul-24 21:31N 34°15' E 135°06'0 0.0
2014-Jul-24 20:31N 34°15' E 135°06'0 0.0
2014-Jul-24 19:31N 34°15' E 135°06'0 0.0
2014-Jul-24 18:31N 34°15' E 135°06'0 0.0
2014-Jul-24 17:31N 34°15' E 135°06'0 0.1
2014-Jul-24 16:31N 34°15' E 135°06'0 0.0
2014-Jul-24 15:31N 34°15' E 135°06'0 0.0
2014-Jul-24 14:31N 34°15' E 135°06'0 0.0
2014-Jul-24 13:31N 34°15' E 135°06'0 0.0
2014-Jul-24 12:28N 34°15' E 135°06'0 0.0
2014-Jul-24 11:31N 34°15' E 135°06'0 0.0
2014-Jul-24 10:28N 34°15' E 135°06'3 3.2
2014-Jul-24 09:31N 34°16' E 135°03'1111.7
2014-Jul-24 08:33N 34°26' E 135°10'1212.4
2014-Jul-24 07:33N 34°35' E 135°20'8 0.9
2014-Jul-23 23:07N 34°40' E 135°27'0 0.0
2014-Jul-23 22:33N 34°40' E 135°27'4 4.1
2014-Jul-23 21:33N 34°38' E 135°23'1 0.5
2014-Jul-23 20:28N 34°37' E 135°23'0 0.0
2014-Jul-23 19:22N 34°37' E 135°23'0 0.0
2014-Jul-23 18:22N 34°37' E 135°23'0 0.0
2014-Jul-23 17:28N 34°37' E 135°23'0 0.0
2014-Jul-23 16:22N 34°37' E 135°23'0 0.0
2014-Jul-23 15:28N 34°37' E 135°23'0 0.0
2014-Jul-23 14:28N 34°37' E 135°23'0 0.0
2014-Jul-23 13:28N 34°37' E 135°23'0 0.0
2014-Jul-23 12:28N 34°37' E 135°23'0 0.0
2014-Jul-23 11:28N 34°37' E 135°23'0 0.0
2014-Jul-23 10:28N 34°37' E 135°23'0 0.0
2014-Jul-23 09:28N 34°37' E 135°23'0 0.0
2014-Jul-23 08:16N 34°37' E 135°23'4 6.0
2014-Jul-23 07:33N 34°40' E 135°27'0 0.2
2014-Jul-23 06:30N 34°40' E 135°27'0 0.0
2014-Jul-23 04:30N 34°40' E 135°27'0 0.0
2014-Jul-23 03:24N 34°40' E 135°27'0 0.0
2014-Jul-23 02:30N 34°40' E 135°27'0 0.0
2014-Jul-23 01:25N 34°40' E 135°27'5 5.4
2014-Jul-23 00:31N 34°37' E 135°22'0 0.0
2014-Jul-22 23:20N 34°37' E 135°22'0 0.0
2014-Jul-22 22:32N 34°37' E 135°22'0 0.0
2014-Jul-22 21:20N 34°37' E 135°22'0 0.0
2014-Jul-22 20:20N 34°37' E 135°22'0 0.1
2014-Jul-22 19:26N 34°37' E 135°22'0 0.1
2014-Jul-22 18:32N 34°37' E 135°22'0 0.0
2014-Jul-22 17:14N 34°37' E 135°22'0 0.0
2014-Jul-22 16:20N 34°37' E 135°22'0 0.0
2014-Jul-22 15:32N 34°37' E 135°22'0 0.0
2014-Jul-22 14:32N 34°37' E 135°22'0 0.0
2014-Jul-22 13:32N 34°37' E 135°22'0 0.0
2014-Jul-22 12:26N 34°37' E 135°22'0 0.0
2014-Jul-22 11:20N 34°37' E 135°22'0 0.0
2014-Jul-22 10:26N 34°37' E 135°22'0 0.0
2014-Jul-22 09:26N 34°37' E 135°22'0 0.1
2014-Jul-22 08:32N 34°37' E 135°22'0 0.0
2014-Jul-22 07:32N 34°37' E 135°22'0 0.1
2014-Jul-22 06:32N 34°37' E 135°22'0 0.0
2014-Jul-22 04:23N 34°37' E 135°22'0 0.0
2014-Jul-22 03:17N 34°37' E 135°22'0 0.0
2014-Jul-22 02:29N 34°37' E 135°22'0 0.0
2014-Jul-22 01:29N 34°37' E 135°22'0 0.0
2014-Jul-22 00:23N 34°37' E 135°22'0 0.0
2014-Jul-21 23:29N 34°37' E 135°22'0 0.0
2014-Jul-21 22:17N 34°37' E 135°22'0 0.0
2014-Jul-21 21:11N 34°37' E 135°22'0 0.1
2014-Jul-21 20:29N 34°37' E 135°22'0 0.0
2014-Jul-21 20:17N 34°37' E 135°22'0 0.0
2014-Jul-21 19:23N 34°37' E 135°22'0 0.0
2014-Jul-21 18:29N 34°37' E 135°22'0 0.1
2014-Jul-21 17:23N 34°37' E 135°22'0 0.1
2014-Jul-21 16:29N 34°37' E 135°22'1 1.3
2014-Jul-21 15:34N 34°36' E 135°21'1211.7
2014-Jul-21 14:33N 34°35' E 135°07'  
2014-Jul-16 10:04N 34°37' E 134°56'510.4
2014-Jul-16 09:33N 34°36' E 135°03'1111.5
2014-Jul-16 08:33N 34°37' E 135°17'8 8.0
2014-Jul-16 07:33N 34°40' E 135°25'0 0.0
2014-Jul-16 04:22N 34°40' E 135°25'0 0.0
2014-Jul-16 03:16N 34°40' E 135°25'0 0.0
2014-Jul-16 02:28N 34°40' E 135°25'0 0.0
2014-Jul-16 00:16N 34°40' E 135°25'0 0.3
2014-Jul-15 23:33N 34°40' E 135°25'4 3.5
2014-Jul-15 22:29N 34°37' E 135°22'0 0.0
2014-Jul-15 21:29N 34°37' E 135°22'0 0.0
2014-Jul-15 20:29N 34°37' E 135°22'0 0.0
2014-Jul-15 19:29N 34°37' E 135°22'0 0.0
2014-Jul-15 18:29N 34°37' E 135°22'0 0.0
2014-Jul-15 17:29N 34°37' E 135°22'0 0.0
2014-Jul-15 16:29N 34°37' E 135°22'0 0.1
2014-Jul-15 15:29N 34°37' E 135°22'0 0.1
2014-Jul-15 14:29N 34°37' E 135°22'0 0.0
2014-Jul-15 13:23N 34°37' E 135°22'  
Track history (hours):
 
Tides and Currents Weather Stations Pressure Air Temp Water Temp Dewpoint Dewpoint Depression Visibility Wind Speed Wind Dir Waves Ship Positions

Sansumifuku

Last reported at 2014-Jul-25 12:29 UTC. Time now 2014-Jul-25 23:09 UTC.
Position N 34°37' E 134°56'.

Length 75 m; draft 4.3 m.

Type: Cargo ship. MMSI: 431000426.

Date/timePositionNaut miles runAvg speedWind from/ knotsBaromVisibWave heightAir tempDewpointWater temp
2014-Jul-25 12:29N 34°37' E 134°56'1010.9
2014-Jul-25 11:31N 34°31' E 135°06'1212.4
2014-Jul-25 10:33N 34°19' E 135°04'5 4.8
2014-Jul-25 09:32N 34°15' E 135°07'0 0.0
2014-Jul-25 08:15N 34°15' E 135°07'0 0.0
2014-Jul-25 07:18N 34°15' E 135°07'0 0.0
2014-Jul-25 06:33N 34°15' E 135°07'0 0.0
2014-Jul-25 05:33N 34°15' E 135°07'0 0.0
2014-Jul-25 04:33N 34°15' E 135°07'0 0.0
2014-Jul-25 03:26N 34°15' E 135°07'0 0.0
2014-Jul-25 02:33N 34°15' E 135°07'0 0.0
2014-Jul-25 01:33N 34°15' E 135°07'0 0.2
2014-Jul-25 00:34N 34°14' E 135°07'1 0.6
2014-Jul-24 23:25N 34°15' E 135°06'0 0.1
2014-Jul-24 22:31N 34°15' E 135°06'0 0.0
2014-Jul-24 21:31N 34°15' E 135°06'0 0.0
2014-Jul-24 20:31N 34°15' E 135°06'0 0.0
2014-Jul-24 19:31N 34°15' E 135°06'0 0.0
2014-Jul-24 18:31N 34°15' E 135°06'0 0.0
2014-Jul-24 17:31N 34°15' E 135°06'0 0.1
2014-Jul-24 16:31N 34°15' E 135°06'0 0.0
2014-Jul-24 15:31N 34°15' E 135°06'0 0.0
2014-Jul-24 14:31N 34°15' E 135°06'0 0.0
2014-Jul-24 13:31N 34°15' E 135°06'0 0.0
2014-Jul-24 12:28N 34°15' E 135°06'0 0.0
2014-Jul-24 11:31N 34°15' E 135°06'0 0.0
2014-Jul-24 10:28N 34°15' E 135°06'3 3.2
2014-Jul-24 09:31N 34°16' E 135°03'1111.7
2014-Jul-24 08:33N 34°26' E 135°10'1212.4
2014-Jul-24 07:33N 34°35' E 135°20'8 0.9
2014-Jul-23 23:07N 34°40' E 135°27'0 0.0
2014-Jul-23 22:33N 34°40' E 135°27'4 4.1
2014-Jul-23 21:33N 34°38' E 135°23'1 0.5
2014-Jul-23 20:28N 34°37' E 135°23'0 0.0
2014-Jul-23 19:22N 34°37' E 135°23'0 0.0
2014-Jul-23 18:22N 34°37' E 135°23'0 0.0
2014-Jul-23 17:28N 34°37' E 135°23'0 0.0
2014-Jul-23 16:22N 34°37' E 135°23'0 0.0
2014-Jul-23 15:28N 34°37' E 135°23'0 0.0
2014-Jul-23 14:28N 34°37' E 135°23'0 0.0
2014-Jul-23 13:28N 34°37' E 135°23'0 0.0
2014-Jul-23 12:28N 34°37' E 135°23'0 0.0
2014-Jul-23 11:28N 34°37' E 135°23'0 0.0
2014-Jul-23 10:28N 34°37' E 135°23'0 0.0
2014-Jul-23 09:28N 34°37' E 135°23'0 0.0
2014-Jul-23 08:16N 34°37' E 135°23'4 6.0
2014-Jul-23 07:33N 34°40' E 135°27'0 0.2
2014-Jul-23 06:30N 34°40' E 135°27'0 0.0
2014-Jul-23 04:30N 34°40' E 135°27'0 0.0
2014-Jul-23 03:24N 34°40' E 135°27'0 0.0
2014-Jul-23 02:30N 34°40' E 135°27'0 0.0
2014-Jul-23 01:25N 34°40' E 135°27'5 5.4
2014-Jul-23 00:31N 34°37' E 135°22'0 0.0
2014-Jul-22 23:20N 34°37' E 135°22'0 0.0
2014-Jul-22 22:32N 34°37' E 135°22'0 0.0
2014-Jul-22 21:20N 34°37' E 135°22'0 0.0
2014-Jul-22 20:20N 34°37' E 135°22'0 0.1
2014-Jul-22 19:26N 34°37' E 135°22'0 0.1
2014-Jul-22 18:32N 34°37' E 135°22'0 0.0
2014-Jul-22 17:14N 34°37' E 135°22'0 0.0
2014-Jul-22 16:20N 34°37' E 135°22'0 0.0
2014-Jul-22 15:32N 34°37' E 135°22'0 0.0
2014-Jul-22 14:32N 34°37' E 135°22'0 0.0
2014-Jul-22 13:32N 34°37' E 135°22'0 0.0
2014-Jul-22 12:26N 34°37' E 135°22'0 0.0
2014-Jul-22 11:20N 34°37' E 135°22'0 0.0
2014-Jul-22 10:26N 34°37' E 135°22'0 0.0
2014-Jul-22 09:26N 34°37' E 135°22'0 0.1
2014-Jul-22 08:32N 34°37' E 135°22'0 0.0
2014-Jul-22 07:32N 34°37' E 135°22'0 0.1
2014-Jul-22 06:32N 34°37' E 135°22'0 0.0
2014-Jul-22 04:23N 34°37' E 135°22'0 0.0
2014-Jul-22 03:17N 34°37' E 135°22'0 0.0
2014-Jul-22 02:29N 34°37' E 135°22'0 0.0
2014-Jul-22 01:29N 34°37' E 135°22'0 0.0
2014-Jul-22 00:23N 34°37' E 135°22'0 0.0
2014-Jul-21 23:29N 34°37' E 135°22'0 0.0
2014-Jul-21 22:17N 34°37' E 135°22'0 0.0
2014-Jul-21 21:11N 34°37' E 135°22'0 0.1
2014-Jul-21 20:29N 34°37' E 135°22'0 0.0
2014-Jul-21 20:17N 34°37' E 135°22'0 0.0
2014-Jul-21 19:23N 34°37' E 135°22'0 0.0
2014-Jul-21 18:29N 34°37' E 135°22'0 0.1
2014-Jul-21 17:23N 34°37' E 135°22'0 0.1
2014-Jul-21 16:29N 34°37' E 135°22'1 1.3
2014-Jul-21 15:34N 34°36' E 135°21'1211.7
2014-Jul-21 14:33N 34°35' E 135°07'  
2014-Jul-16 10:04N 34°37' E 134°56'510.4
2014-Jul-16 09:33N 34°36' E 135°03'1111.5
2014-Jul-16 08:33N 34°37' E 135°17'8 8.0
2014-Jul-16 07:33N 34°40' E 135°25'0 0.0
2014-Jul-16 04:22N 34°40' E 135°25'0 0.0
2014-Jul-16 03:16N 34°40' E 135°25'0 0.0
2014-Jul-16 02:28N 34°40' E 135°25'0 0.0
2014-Jul-16 00:16N 34°40' E 135°25'0 0.3
2014-Jul-15 23:33N 34°40' E 135°25'4 3.5
2014-Jul-15 22:29N 34°37' E 135°22'0 0.0
2014-Jul-15 21:29N 34°37' E 135°22'0 0.0
2014-Jul-15 20:29N 34°37' E 135°22'0 0.0
2014-Jul-15 19:29N 34°37' E 135°22'0 0.0
2014-Jul-15 18:29N 34°37' E 135°22'0 0.0
2014-Jul-15 17:29N 34°37' E 135°22'0 0.0
2014-Jul-15 16:29N 34°37' E 135°22'0 0.1
2014-Jul-15 15:29N 34°37' E 135°22'0 0.1
2014-Jul-15 14:29N 34°37' E 135°22'0 0.0
2014-Jul-15 13:23N 34°37' E 135°22'  

Dump ship's entire track history